Aviation Digital Data Service (ADDS)

Output produced by METARs form (0937 UTC 20 November 2017)
found at http://aviationweather.gov/adds/metars/
 
KASD 200853Z AUTO 00000KT 10SM CLR 02/00 A3022 RMK AO2 SLP233 T00170000 57002